createdAt,value
2018-09-17T00:02:17.133Z,10.67
2018-09-17T00:04:46.704Z,11.30
2018-09-17T00:07:15.848Z,11.00
2018-09-17T00:09:45.024Z,11.97
2018-09-17T00:12:14.289Z,11.43
2018-09-17T00:14:43.629Z,11.20
2018-09-17T00:17:12.693Z,10.90
2018-09-17T00:19:41.901Z,12.10
2018-09-17T00:22:11.118Z,11.57
2018-09-17T00:24:40.244Z,12.13
2018-09-17T00:27:09.294Z,11.93
2018-09-17T00:29:38.340Z,12.80
2018-09-17T00:32:07.911Z,11.57
2018-09-17T00:34:36.623Z,11.30
2018-09-17T00:37:05.728Z,12.10
2018-09-17T00:39:34.971Z,11.97
2018-09-17T00:42:05.057Z,10.90
2018-09-17T00:44:34.121Z,12.60
2018-09-17T00:47:03.276Z,11.60
2018-09-17T00:49:32.516Z,11.90
2018-09-17T00:52:01.713Z,11.10
2018-09-17T00:54:31.049Z,10.30
2018-09-17T00:57:00.235Z,12.13
2018-09-17T00:59:29.438Z,10.53
2018-09-17T01:01:58.577Z,11.33
2018-09-17T01:04:27.688Z,11.57
2018-09-17T01:06:57.569Z,10.83
2018-09-17T01:09:31.844Z,11.10
2018-09-17T01:12:00.912Z,11.67
2018-09-17T01:14:30.112Z,11.73
2018-09-17T01:16:59.184Z,12.40
2018-09-17T01:19:28.246Z,12.00
2018-09-17T01:21:57.312Z,11.83
2018-09-17T01:24:26.418Z,12.83
2018-09-17T01:26:55.440Z,13.30
2018-09-17T01:29:24.553Z,13.33
2018-09-17T01:31:53.604Z,13.27
2018-09-17T01:34:23.340Z,13.67
2018-09-17T01:36:52.672Z,13.50
2018-09-17T01:39:21.809Z,13.80
2018-09-17T01:41:50.949Z,12.37
2018-09-17T01:44:19.990Z,13.03
2018-09-17T01:46:49.222Z,15.40
2018-09-17T01:49:18.441Z,14.00
2018-09-17T01:51:48.192Z,14.80
2018-09-17T01:54:17.427Z,12.70
2018-09-17T01:56:46.472Z,14.57
2018-09-17T01:59:15.524Z,14.00
2018-09-17T02:01:44.646Z,14.37
2018-09-17T02:04:13.725Z,12.73
2018-09-17T02:06:42.791Z,13.10
2018-09-17T02:09:12.075Z,13.07
2018-09-17T02:11:41.164Z,13.30
2018-09-17T02:14:10.281Z,11.70
2018-09-17T02:16:39.315Z,12.73
2018-09-17T02:19:08.388Z,12.50
2018-09-17T02:21:37.448Z,13.50
2018-09-17T02:24:06.609Z,12.50
2018-09-17T02:26:35.887Z,12.97
2018-09-17T02:29:05.724Z,12.27
2018-09-17T02:31:34.792Z,13.23
2018-09-17T02:34:03.851Z,13.73
2018-09-17T02:36:33.632Z,14.63
2018-09-17T02:39:03.135Z,14.23
2018-09-17T02:41:32.230Z,13.70
2018-09-17T02:44:01.816Z,13.00
2018-09-17T02:46:30.970Z,13.53
2018-09-17T02:49:00.149Z,12.60
2018-09-17T02:51:29.289Z,13.70
2018-09-17T02:53:58.392Z,14.80
2018-09-17T02:56:27.564Z,14.60
2018-09-17T02:58:56.607Z,14.93
2018-09-17T03:01:25.669Z,15.33
2018-09-17T03:03:54.801Z,14.20
2018-09-17T03:06:23.965Z,13.77
2018-09-17T03:08:53.064Z,14.80
2018-09-17T03:11:22.157Z,15.30
2018-09-17T03:13:51.336Z,14.97
2018-09-17T03:16:20.561Z,15.50
2018-09-17T03:18:54.860Z,13.97
2018-09-17T03:21:24.111Z,16.27
2018-09-17T03:23:53.540Z,13.53
2018-09-17T03:26:23.113Z,12.83
2018-09-17T03:28:52.468Z,13.90
2018-09-17T03:31:21.576Z,15.33
2018-09-17T03:33:50.687Z,15.83
2018-09-17T03:36:19.862Z,14.70
2018-09-17T03:38:50.036Z,16.13
2018-09-17T03:41:20.180Z,16.10
2018-09-17T03:43:51.292Z,17.23
2018-09-17T03:46:20.401Z,17.33
2018-09-17T03:48:49.401Z,18.33
2018-09-17T03:51:18.491Z,18.30
2018-09-17T03:53:47.576Z,17.43
2018-09-17T03:56:16.669Z,17.30
2018-09-17T03:58:45.836Z,19.07
2018-09-17T04:01:14.938Z,20.77
2018-09-17T04:03:43.957Z,19.10
2018-09-17T04:06:13.172Z,20.10
2018-09-17T04:08:42.223Z,19.17
2018-09-17T04:11:11.301Z,20.90
2018-09-17T04:13:40.593Z,23.20
2018-09-17T04:16:09.871Z,20.67
2018-09-17T04:18:38.900Z,18.57
2018-09-17T04:21:07.968Z,18.83
2018-09-17T04:23:38.724Z,19.20
2018-09-17T04:26:09.904Z,19.73
2018-09-17T04:28:39.493Z,16.50
2018-09-17T04:31:08.684Z,18.20
2018-09-17T04:33:40.200Z,18.57
2018-09-17T04:36:10.782Z,17.37
2018-09-17T04:41:00.713Z,16.07
2018-09-17T04:43:29.766Z,16.70
2018-09-17T04:45:59.133Z,17.50
2018-09-17T04:48:29.211Z,17.57
2018-09-17T04:50:58.376Z,16.53
2018-09-17T04:53:27.525Z,18.47
2018-09-17T04:55:56.637Z,19.70
2018-09-17T04:58:25.671Z,18.83
2018-09-17T05:00:54.898Z,21.07
2018-09-17T05:03:24.026Z,20.73
2018-09-17T05:05:53.095Z,19.17
2018-09-17T05:08:22.469Z,18.83
2018-09-17T05:10:51.585Z,22.90
2018-09-17T05:13:20.793Z,18.93
2018-09-17T05:15:49.820Z,21.40
2018-09-17T05:18:18.928Z,20.00
2018-09-17T05:20:48.556Z,18.00
2018-09-17T05:23:18.756Z,19.00
2018-09-17T05:25:47.817Z,16.73
2018-09-17T05:28:16.926Z,18.50
2018-09-17T05:30:46.063Z,20.17
2018-09-17T05:33:15.250Z,19.13
2018-09-17T05:35:44.465Z,18.03
2018-09-17T05:39:42.959Z,16.13
2018-09-17T05:42:12.537Z,15.97
2018-09-17T05:44:41.879Z,14.80
2018-09-17T05:47:10.994Z,15.03
2018-09-17T05:49:40.211Z,14.20
2018-09-17T05:52:09.379Z,13.40
2018-09-17T05:54:38.431Z,14.40
2018-09-17T05:57:07.513Z,12.87
2018-09-17T05:59:36.710Z,12.87
2018-09-17T06:02:05.905Z,12.73
2018-09-17T06:04:35.067Z,12.43
2018-09-17T06:07:04.331Z,13.20
2018-09-17T06:09:33.980Z,11.83
2018-09-17T06:12:03.198Z,12.50
2018-09-17T06:14:32.390Z,12.57
2018-09-17T06:17:02.342Z,12.17
2018-09-17T06:19:31.466Z,11.37
2018-09-17T06:22:00.556Z,10.00
2018-09-17T06:24:30.367Z,12.33
2018-09-17T06:26:59.442Z,11.10
2018-09-17T06:29:28.549Z,12.50
2018-09-17T06:31:57.692Z,15.77
2018-09-17T06:34:27.501Z,10.70
2018-09-17T06:39:25.836Z,9.63
2018-09-17T06:41:54.926Z,8.83
2018-09-17T06:44:24.006Z,10.77
2018-09-17T06:46:53.202Z,9.27
2018-09-17T06:49:22.328Z,10.57
2018-09-17T06:51:51.683Z,9.20
2018-09-17T06:54:20.744Z,9.90
2018-09-17T06:56:49.888Z,10.37
2018-09-17T06:59:18.922Z,10.83
2018-09-17T07:01:48.680Z,11.57
2018-09-17T07:04:17.965Z,10.50
2018-09-17T07:06:47.100Z,9.80
2018-09-17T07:09:16.273Z,10.73
2018-09-17T07:11:45.282Z,10.83
2018-09-17T07:14:14.409Z,10.10
2018-09-17T07:16:44.044Z,10.80
2018-09-17T07:19:13.492Z,10.30
2018-09-17T07:21:42.545Z,11.60
2018-09-17T07:24:11.704Z,10.03
2018-09-17T07:26:41.376Z,11.00
2018-09-17T07:29:10.501Z,10.20
2018-09-17T07:31:40.242Z,10.60
2018-09-17T07:34:09.580Z,12.03
2018-09-17T07:36:38.662Z,10.80
2018-09-17T07:39:09.427Z,11.83
2018-09-17T07:41:38.479Z,10.87
2018-09-17T07:44:07.677Z,11.40
2018-09-17T07:46:36.792Z,10.97
2018-09-17T07:49:05.839Z,11.53
2018-09-17T07:51:34.974Z,12.07
2018-09-17T07:54:04.217Z,11.90
2018-09-17T07:56:33.982Z,11.70
2018-09-17T07:59:03.089Z,12.10
2018-09-17T08:01:33.270Z,10.17
2018-09-17T08:04:02.502Z,10.33
2018-09-17T08:06:31.794Z,9.30
2018-09-17T08:09:00.905Z,9.77
2018-09-17T08:11:31.102Z,10.50
2018-09-17T08:14:00.350Z,9.90
2018-09-17T08:16:29.416Z,10.20
2018-09-17T08:18:58.771Z,10.30
2018-09-17T08:21:28.092Z,9.73
2018-09-17T08:23:57.188Z,9.63
2018-09-17T08:26:26.315Z,9.70
2018-09-17T08:28:55.364Z,8.90
2018-09-17T08:31:24.600Z,9.80
2018-09-17T08:33:53.588Z,9.73
2018-09-17T08:36:22.895Z,9.40
2018-09-17T08:38:52.647Z,9.60
2018-09-17T08:41:22.033Z,8.03
2018-09-17T08:43:51.132Z,8.90
2018-09-17T08:46:20.436Z,9.17
2018-09-17T08:48:49.508Z,8.70
2018-09-17T08:51:19.027Z,9.30
2018-09-17T08:53:48.077Z,8.70
2018-09-17T08:56:27.165Z,8.87
2018-09-17T08:58:58.426Z,8.87
2018-09-17T09:01:30.082Z,7.53
2018-09-17T09:04:04.549Z,7.17
2018-09-17T09:06:39.073Z,7.10
2018-09-17T09:09:10.181Z,7.07
2018-09-17T09:11:44.688Z,7.33
2018-09-17T09:14:19.084Z,6.30
2018-09-17T09:16:48.244Z,7.00
2018-09-17T09:19:17.260Z,7.17
2018-09-17T09:21:46.328Z,6.63
2018-09-17T09:24:15.445Z,6.03
2018-09-17T09:26:45.245Z,7.43
2018-09-17T09:29:14.473Z,7.40
2018-09-17T09:31:43.672Z,8.10
2018-09-17T09:34:12.784Z,6.67
2018-09-17T09:36:41.976Z,6.23
2018-09-17T09:39:12.189Z,7.60
2018-09-17T09:41:41.394Z,8.30
2018-09-17T09:44:11.208Z,6.70
2018-09-17T09:46:40.263Z,6.77
2018-09-17T09:49:09.313Z,7.70
2018-09-17T09:51:38.467Z,6.00
2018-09-17T09:54:07.566Z,6.67
2018-09-17T09:56:36.670Z,5.73
2018-09-17T09:59:06.621Z,6.57
2018-09-17T10:01:40.988Z,6.60
2018-09-17T10:04:15.417Z,6.37
2018-09-17T10:06:44.552Z,5.60
2018-09-17T10:09:18.815Z,5.83
2018-09-17T10:12:57.088Z,5.40
2018-09-17T10:15:31.535Z,5.30
2018-09-17T10:18:06.651Z,5.53
2018-09-17T10:20:35.723Z,3.73
2018-09-17T10:23:04.932Z,4.80
2018-09-17T10:25:33.968Z,4.80
2018-09-17T10:28:03.084Z,4.57
2018-09-17T10:30:32.650Z,4.60
2018-09-17T10:33:01.754Z,4.03
2018-09-17T10:35:30.928Z,3.90
2018-09-17T10:38:00.126Z,4.37
2018-09-17T10:40:29.996Z,3.97
2018-09-17T10:42:59.234Z,3.93
2018-09-17T10:45:28.340Z,4.10
2018-09-17T10:47:57.514Z,3.67
2018-09-17T10:50:26.575Z,3.30
2018-09-17T10:52:56.372Z,2.97
2018-09-17T10:55:25.441Z,3.07
2018-09-17T10:57:54.565Z,2.93
2018-09-17T11:00:24.099Z,3.00
2018-09-17T11:02:54.100Z,3.00
2018-09-17T11:05:23.731Z,2.40
2018-09-17T11:07:52.814Z,2.40
2018-09-17T11:10:22.769Z,2.33
2018-09-17T11:12:51.832Z,2.60
2018-09-17T11:15:21.088Z,2.10
2018-09-17T11:17:50.863Z,1.93
2018-09-17T11:20:20.012Z,2.37
2018-09-17T11:22:49.165Z,2.40
2018-09-17T11:25:18.350Z,2.20
2018-09-17T11:27:47.458Z,2.03
2018-09-17T11:30:17.184Z,2.00
2018-09-17T11:32:46.727Z,2.20
2018-09-17T11:35:15.764Z,2.10
2018-09-17T11:37:44.932Z,2.20
2018-09-17T11:40:13.992Z,2.10
2018-09-17T11:42:43.985Z,2.10
2018-09-17T11:45:13.035Z,2.27
2018-09-17T11:47:42.113Z,2.20
2018-09-17T11:50:11.520Z,2.47
2018-09-17T11:52:41.412Z,1.93
2018-09-17T11:55:11.114Z,2.17
2018-09-17T11:57:40.244Z,1.90
2018-09-17T12:00:09.626Z,2.33
2018-09-17T12:02:42.994Z,1.90
2018-09-17T12:05:16.329Z,1.83
2018-09-17T12:07:46.283Z,1.90
2018-09-17T12:10:15.948Z,2.10
2018-09-17T12:12:45.016Z,1.80
2018-09-17T12:15:14.273Z,2.37
2018-09-17T12:17:43.400Z,2.50
2018-09-17T12:20:12.876Z,2.03
2018-09-17T12:22:41.926Z,2.03
2018-09-17T12:25:11.728Z,2.80
2018-09-17T12:27:41.492Z,2.10
2018-09-17T12:30:10.952Z,1.90
2018-09-17T12:32:39.981Z,2.27
2018-09-17T12:35:09.194Z,2.23
2018-09-17T12:37:38.261Z,2.13
2018-09-17T12:40:07.370Z,1.83
2018-09-17T12:42:36.584Z,2.20
2018-09-17T12:45:05.852Z,2.40
2018-09-17T12:47:34.983Z,2.20
2018-09-17T12:50:04.241Z,2.57
2018-09-17T12:52:33.326Z,2.23
2018-09-17T12:55:02.431Z,2.40
2018-09-17T12:57:31.609Z,2.10
2018-09-17T13:00:00.881Z,2.00
2018-09-17T13:02:29.995Z,2.00
2018-09-17T13:04:59.129Z,1.80
2018-09-17T13:07:28.283Z,1.83
2018-09-17T13:09:57.495Z,1.70
2018-09-17T13:12:26.554Z,1.70
2018-09-17T13:14:56.350Z,1.80
2018-09-17T13:17:25.977Z,2.10
2018-09-17T13:19:55.038Z,1.80
2018-09-17T13:22:24.760Z,1.90
2018-09-17T13:24:53.914Z,2.30
2018-09-17T13:27:23.098Z,1.87
2018-09-17T13:29:52.181Z,1.87
2018-09-17T13:32:21.337Z,1.97
2018-09-17T13:34:50.399Z,2.53
2018-09-17T13:37:19.461Z,2.40
2018-09-17T13:39:48.577Z,2.40
2018-09-17T13:42:17.629Z,2.43
2018-09-17T13:44:46.702Z,2.23
2018-09-17T13:47:15.949Z,2.17
2018-09-17T13:49:45.131Z,2.20
2018-09-17T13:52:14.217Z,2.07
2018-09-17T13:54:44.374Z,2.43
2018-09-17T13:57:13.491Z,2.40
2018-09-17T13:59:42.541Z,2.20
2018-09-17T14:02:11.688Z,2.50
2018-09-17T14:04:40.733Z,2.17
2018-09-17T14:07:09.941Z,2.30
2018-09-17T14:09:39.563Z,2.10
2018-09-17T14:12:09.149Z,2.40
2018-09-17T14:14:38.327Z,1.63
2018-09-17T14:17:07.603Z,1.80
2018-09-17T14:19:38.047Z,1.63
2018-09-17T14:22:07.341Z,1.97
2018-09-17T14:24:36.557Z,2.03
2018-09-17T14:27:05.846Z,1.87
2018-09-17T14:29:34.989Z,2.20
2018-09-17T14:32:09.572Z,2.23
2018-09-17T14:34:38.619Z,1.63
2018-09-17T14:37:07.801Z,1.63
2018-09-17T14:39:37.017Z,1.67
2018-09-17T14:42:06.646Z,1.97
2018-09-17T14:44:35.744Z,2.10
2018-09-17T14:47:04.975Z,1.47
2018-09-17T14:49:34.689Z,1.70
2018-09-17T14:52:04.221Z,2.00
2018-09-17T14:54:33.370Z,1.93
2018-09-17T14:57:02.630Z,2.33
2018-09-17T14:59:31.770Z,2.27
2018-09-17T15:02:01.314Z,1.77
2018-09-17T15:04:30.543Z,1.93
2018-09-17T15:06:59.657Z,1.50
2018-09-17T15:09:28.849Z,1.90
2018-09-17T15:11:57.936Z,1.70
2018-09-17T15:14:28.686Z,2.00
2018-09-17T15:16:58.525Z,2.20
2018-09-17T15:19:27.615Z,2.20
2018-09-17T15:21:56.686Z,1.90
2018-09-17T15:24:25.782Z,1.97
2018-09-17T15:26:54.873Z,2.10
2018-09-17T15:29:23.951Z,1.73
2018-09-17T15:31:53.119Z,2.20
2018-09-17T15:34:23.294Z,2.03
2018-09-17T15:36:52.394Z,2.33
2018-09-17T15:39:21.526Z,2.10
2018-09-17T15:41:50.687Z,2.10
2018-09-17T15:44:20.481Z,1.83
2018-09-17T15:46:50.632Z,1.87
2018-09-17T15:49:20.467Z,1.50
2018-09-17T15:51:49.982Z,1.60
2018-09-17T15:54:18.963Z,1.80
2018-09-17T15:56:48.681Z,1.83
2018-09-17T15:59:18.670Z,1.77
2018-09-17T16:01:48.668Z,2.20
2018-09-17T16:04:17.769Z,1.77
2018-09-17T16:06:46.900Z,1.93
2018-09-17T16:09:16.047Z,1.43
2018-09-17T16:11:45.139Z,2.00
2018-09-17T16:14:14.375Z,1.87
2018-09-17T16:16:44.156Z,1.50
2018-09-17T16:19:13.565Z,1.80
2018-09-17T16:21:42.668Z,1.60
2018-09-17T16:24:11.784Z,1.90
2018-09-17T16:26:40.893Z,1.83
2018-09-17T16:29:10.088Z,1.70
2018-09-17T16:31:39.113Z,2.60
2018-09-17T16:34:08.419Z,1.67
2018-09-17T16:36:37.632Z,2.50
2018-09-17T16:39:08.624Z,2.37
2018-09-17T16:41:37.833Z,2.70
2018-09-17T16:44:07.369Z,2.10
2018-09-17T16:46:37.058Z,2.23
2018-09-17T16:49:06.302Z,2.37
2018-09-17T16:51:35.361Z,2.10
2018-09-17T16:54:04.519Z,2.40
2018-09-17T16:56:33.656Z,2.20
2018-09-17T16:59:03.366Z,1.93
2018-09-17T17:01:32.420Z,2.10
2018-09-17T17:04:01.608Z,1.87
2018-09-17T17:06:30.708Z,1.73
2018-09-17T17:08:59.795Z,2.40
2018-09-17T17:11:28.935Z,2.13
2018-09-17T17:13:58.050Z,1.90
2018-09-17T17:16:27.807Z,2.27
2018-09-17T17:18:57.053Z,2.23
2018-09-17T17:21:26.644Z,2.07
2018-09-17T17:23:55.734Z,1.97
2018-09-17T17:26:25.228Z,1.87
2018-09-17T17:28:54.416Z,2.20
2018-09-17T17:31:23.569Z,2.07
2018-09-17T17:33:53.194Z,1.87
2018-09-17T17:36:22.314Z,3.47
2018-09-17T17:38:51.425Z,2.83
2018-09-17T17:41:20.983Z,1.80
2018-09-17T17:43:50.069Z,1.87
2018-09-17T17:46:19.201Z,2.10
2018-09-17T17:48:48.387Z,1.97
2018-09-17T17:51:17.505Z,1.83
2018-09-17T17:53:46.614Z,2.23
2018-09-17T17:56:15.745Z,1.90
2018-09-17T17:58:44.884Z,2.07
2018-09-17T18:01:14.146Z,2.30
2018-09-17T18:03:43.113Z,2.40
2018-09-17T18:06:12.143Z,1.87
2018-09-17T18:08:41.235Z,2.33
2018-09-17T18:11:10.386Z,1.70
2018-09-17T18:13:39.593Z,2.17
2018-09-17T18:16:08.721Z,3.27
2018-09-17T18:18:37.917Z,3.10
2018-09-17T18:21:07.402Z,2.70
2018-09-17T18:23:36.869Z,2.90
2018-09-17T18:26:05.931Z,2.63
2018-09-17T18:28:35.030Z,2.37
2018-09-17T18:31:04.116Z,2.27
2018-09-17T18:33:33.982Z,3.00
2018-09-17T18:36:03.117Z,2.70
2018-09-17T18:38:32.183Z,2.77
2018-09-17T18:41:01.315Z,2.63
2018-09-17T18:43:30.482Z,3.20
2018-09-17T18:46:00.220Z,3.10
2018-09-17T18:48:29.271Z,3.03
2018-09-17T18:50:58.460Z,3.30
2018-09-17T18:53:27.504Z,3.00
2018-09-17T18:55:56.596Z,3.40
2018-09-17T18:58:25.768Z,2.93
2018-09-17T19:00:54.912Z,3.40
2018-09-17T19:03:23.981Z,3.37
2018-09-17T19:05:53.145Z,4.07
2018-09-17T19:08:22.142Z,3.83
2018-09-17T19:10:51.320Z,3.80
2018-09-17T19:13:20.416Z,3.90
2018-09-17T19:15:52.092Z,4.40
2018-09-17T19:18:21.245Z,3.37
2018-09-17T19:20:51.280Z,3.40
2018-09-17T19:23:25.595Z,2.90
2018-09-17T19:25:55.261Z,3.30
2018-09-17T19:28:29.584Z,3.27
2018-09-17T19:30:58.776Z,3.00
2018-09-17T19:33:27.860Z,2.60
2018-09-17T19:35:57.049Z,2.47
2018-09-17T19:38:31.476Z,2.90
2018-09-17T19:41:00.628Z,2.60
2018-09-17T19:43:29.687Z,3.57
2018-09-17T19:46:15.893Z,4.47
2018-09-17T19:48:45.014Z,3.70
2018-09-17T19:51:19.105Z,3.83
2018-09-17T19:53:48.376Z,3.83
2018-09-17T19:56:17.576Z,3.90
2018-09-17T19:59:55.413Z,3.63
2018-09-17T20:02:24.710Z,3.70
2018-09-17T20:04:59.005Z,3.50
2018-09-17T20:07:28.092Z,4.03
2018-09-17T20:09:57.288Z,4.77
2018-09-17T20:12:26.364Z,4.23
2018-09-17T20:14:55.556Z,4.47
2018-09-17T20:17:24.715Z,3.73
2018-09-17T20:19:53.800Z,3.70
2018-09-17T20:22:22.999Z,3.70
2018-09-17T20:24:52.115Z,3.63
2018-09-17T20:27:22.023Z,4.27
2018-09-17T20:29:51.134Z,4.33
2018-09-17T20:32:20.242Z,4.87
2018-09-17T20:34:49.319Z,4.80
2018-09-17T20:37:18.502Z,5.00
2018-09-17T20:39:47.539Z,4.67
2018-09-17T20:42:16.635Z,4.30
2018-09-17T20:44:45.644Z,4.53
2018-09-17T20:47:14.850Z,4.30
2018-09-17T20:49:44.019Z,3.80
2018-09-17T20:52:13.124Z,4.53
2018-09-17T20:54:42.306Z,4.50
2018-09-17T20:57:11.316Z,5.27
2018-09-17T20:59:40.552Z,4.43
2018-09-17T21:02:09.717Z,3.93
2018-09-17T21:04:38.749Z,4.30
2018-09-17T21:07:07.863Z,4.63
2018-09-17T21:09:37.005Z,4.30
2018-09-17T21:12:06.077Z,4.10
2018-09-17T21:14:35.129Z,3.30
2018-09-17T21:17:04.359Z,3.67
2018-09-17T21:19:33.444Z,5.30
2018-09-17T21:22:02.552Z,3.60
2018-09-17T21:24:31.638Z,3.60
2018-09-17T21:27:00.779Z,3.37
2018-09-17T21:29:30.460Z,3.17
2018-09-17T21:31:59.653Z,3.43
2018-09-17T21:34:29.479Z,2.40
2018-09-17T21:36:58.989Z,2.63
2018-09-17T21:39:27.907Z,3.13
2018-09-17T21:41:57.011Z,3.63
2018-09-17T21:44:26.189Z,3.70
2018-09-17T21:46:55.249Z,3.47
2018-09-17T21:49:24.349Z,2.87
2018-09-17T21:51:53.458Z,3.23
2018-09-17T21:54:22.626Z,3.40
2018-09-17T21:56:51.888Z,3.17
2018-09-17T21:59:20.930Z,3.73
2018-09-17T22:01:50.216Z,3.90
2018-09-17T22:04:19.295Z,4.00
2018-09-17T22:06:48.377Z,3.60
2018-09-17T22:09:17.588Z,4.40
2018-09-17T22:11:46.747Z,4.73
2018-09-17T22:14:15.994Z,4.57
2018-09-17T22:16:45.109Z,4.70
2018-09-17T22:19:14.212Z,5.03
2018-09-17T22:21:43.327Z,4.43
2018-09-17T22:24:12.417Z,3.80
2018-09-17T22:26:41.449Z,4.63
2018-09-17T22:29:10.650Z,5.07
2018-09-17T22:31:39.740Z,4.33
2018-09-17T22:34:08.832Z,4.20
2018-09-17T22:36:37.989Z,4.63
2018-09-17T22:39:08.977Z,4.47
2018-09-17T22:41:38.544Z,5.07
2018-09-17T22:44:07.982Z,4.33
2018-09-17T22:46:37.110Z,5.20
2018-09-17T22:49:06.813Z,4.87
2018-09-17T22:51:35.916Z,4.60
2018-09-17T22:54:05.135Z,5.67
2018-09-17T22:56:34.348Z,4.90
2018-09-17T22:59:03.810Z,4.80
2018-09-17T23:01:33.359Z,4.60
2018-09-17T23:04:02.471Z,4.50
2018-09-17T23:06:31.517Z,4.40
2018-09-17T23:09:00.773Z,4.20
2018-09-17T23:11:29.836Z,4.07
2018-09-17T23:13:58.877Z,4.60
2018-09-17T23:16:28.270Z,3.90
2018-09-17T23:18:57.367Z,4.20
2018-09-17T23:21:26.546Z,4.33
2018-09-17T23:23:55.714Z,4.87
2018-09-17T23:26:24.883Z,4.70
2018-09-17T23:28:54.176Z,5.30
2018-09-17T23:31:23.268Z,4.90
2018-09-17T23:33:52.457Z,4.40
2018-09-17T23:36:21.492Z,4.73
2018-09-17T23:38:50.901Z,4.17
2018-09-17T23:41:19.965Z,4.50
2018-09-17T23:43:49.143Z,4.20
2018-09-17T23:46:18.293Z,4.23
2018-09-17T23:48:48.089Z,3.90
2018-09-17T23:51:17.180Z,4.90
2018-09-17T23:53:46.432Z,5.00
2018-09-17T23:56:16.216Z,5.13
2018-09-17T23:58:45.275Z,4.73
